sensor_id;sensor_type;location;lat;lon;timestamp;P1;durP1;ratioP1;P2;durP2;ratioP2
31336;SDS011;22846;42.654;23.314;2023-05-10T00:01:21;2.35;;;2.08;;
31336;SDS011;22846;42.654;23.314;2023-05-10T00:03:47;3.80;;;1.85;;
31336;SDS011;22846;42.654;23.314;2023-05-10T00:06:12;3.45;;;2.30;;
31336;SDS011;22846;42.654;23.314;2023-05-10T00:08:37;3.97;;;2.38;;
31336;SDS011;22846;42.654;23.314;2023-05-10T00:11:03;3.05;;;2.10;;
31336;SDS011;22846;42.654;23.314;2023-05-10T00:13:28;3.58;;;2.45;;
31336;SDS011;22846;42.654;23.314;2023-05-10T00:15:54;2.45;;;2.25;;
31336;SDS011;22846;42.654;23.314;2023-05-10T00:18:19;2.85;;;2.08;;
31336;SDS011;22846;42.654;23.314;2023-05-10T00:20:44;2.42;;;2.08;;
31336;SDS011;22846;42.654;23.314;2023-05-10T00:23:11;3.95;;;2.15;;
31336;SDS011;22846;42.654;23.314;2023-05-10T00:25:36;2.75;;;2.10;;
31336;SDS011;22846;42.654;23.314;2023-05-10T00:28:02;2.22;;;2.03;;
31336;SDS011;22846;42.654;23.314;2023-05-10T00:30:27;2.00;;;1.80;;
31336;SDS011;22846;42.654;23.314;2023-05-10T00:32:53;3.53;;;2.33;;
31336;SDS011;22846;42.654;23.314;2023-05-10T00:35:18;2.47;;;1.98;;
31336;SDS011;22846;42.654;23.314;2023-05-10T00:37:44;2.17;;;1.98;;
31336;SDS011;22846;42.654;23.314;2023-05-10T00:40:10;3.22;;;2.00;;
31336;SDS011;22846;42.654;23.314;2023-05-10T00:42:36;2.63;;;1.80;;
31336;SDS011;22846;42.654;23.314;2023-05-10T00:45:01;2.88;;;1.75;;
31336;SDS011;22846;42.654;23.314;2023-05-10T00:47:27;2.20;;;1.85;;
31336;SDS011;22846;42.654;23.314;2023-05-10T00:49:52;1.90;;;1.70;;
31336;SDS011;22846;42.654;23.314;2023-05-10T00:52:18;2.00;;;1.65;;
31336;SDS011;22846;42.654;23.314;2023-05-10T00:54:44;1.70;;;1.58;;
31336;SDS011;22846;42.654;23.314;2023-05-10T00:57:09;2.55;;;1.98;;
31336;SDS011;22846;42.654;23.314;2023-05-10T00:59:35;2.45;;;2.10;;
31336;SDS011;22846;42.654;23.314;2023-05-10T01:02:01;3.30;;;2.00;;
31336;SDS011;22846;42.654;23.314;2023-05-10T01:04:27;3.88;;;1.63;;
31336;SDS011;22846;42.654;23.314;2023-05-10T01:06:53;2.38;;;1.85;;
31336;SDS011;22846;42.654;23.314;2023-05-10T01:09:19;2.00;;;1.80;;
31336;SDS011;22846;42.654;23.314;2023-05-10T01:11:45;2.05;;;1.85;;
31336;SDS011;22846;42.654;23.314;2023-05-10T01:14:12;2.60;;;1.83;;
31336;SDS011;22846;42.654;23.314;2023-05-10T01:16:39;2.10;;;1.85;;
31336;SDS011;22846;42.654;23.314;2023-05-10T01:19:15;2.03;;;1.70;;
31336;SDS011;22846;42.654;23.314;2023-05-10T01:22:00;3.05;;;1.92;;
31336;SDS011;22846;42.654;23.314;2023-05-10T01:27:25;2.08;;;1.88;;
31336;SDS011;22846;42.654;23.314;2023-05-10T01:32:41;2.20;;;1.90;;
31336;SDS011;22846;42.654;23.314;2023-05-10T01:46:24;1.70;;;1.58;;
31336;SDS011;22846;42.654;23.314;2023-05-10T01:48:57;2.10;;;1.77;;
31336;SDS011;22846;42.654;23.314;2023-05-10T01:51:27;1.70;;;1.60;;
31336;SDS011;22846;42.654;23.314;2023-05-10T01:54:01;2.47;;;1.85;;
31336;SDS011;22846;42.654;23.314;2023-05-10T01:56:29;1.90;;;1.73;;
31336;SDS011;22846;42.654;23.314;2023-05-10T01:58:57;1.92;;;1.77;;
31336;SDS011;22846;42.654;23.314;2023-05-10T02:01:25;2.10;;;1.88;;
31336;SDS011;22846;42.654;23.314;2023-05-10T02:03:52;1.80;;;1.70;;
31336;SDS011;22846;42.654;23.314;2023-05-10T02:06:20;2.38;;;1.90;;
31336;SDS011;22846;42.654;23.314;2023-05-10T02:08:47;1.95;;;1.80;;
31336;SDS011;22846;42.654;23.314;2023-05-10T02:11:15;1.92;;;1.73;;
31336;SDS011;22846;42.654;23.314;2023-05-10T02:13:43;2.13;;;1.92;;
31336;SDS011;22846;42.654;23.314;2023-05-10T02:16:12;2.20;;;1.90;;
31336;SDS011;22846;42.654;23.314;2023-05-10T02:18:39;2.03;;;1.90;;
31336;SDS011;22846;42.654;23.314;2023-05-10T02:21:06;1.67;;;1.58;;
31336;SDS011;22846;42.654;23.314;2023-05-10T02:23:33;2.10;;;1.73;;
31336;SDS011;22846;42.654;23.314;2023-05-10T02:26:00;1.95;;;1.85;;
31336;SDS011;22846;42.654;23.314;2023-05-10T02:28:27;1.88;;;1.75;;
31336;SDS011;22846;42.654;23.314;2023-05-10T02:30:53;1.92;;;1.83;;
31336;SDS011;22846;42.654;23.314;2023-05-10T02:33:20;2.22;;;2.03;;
31336;SDS011;22846;42.654;23.314;2023-05-10T02:35:47;1.92;;;1.80;;
31336;SDS011;22846;42.654;23.314;2023-05-10T02:38:14;2.20;;;2.00;;
31336;SDS011;22846;42.654;23.314;2023-05-10T02:40:41;2.30;;;2.03;;
31336;SDS011;22846;42.654;23.314;2023-05-10T02:43:09;1.88;;;1.77;;
31336;SDS011;22846;42.654;23.314;2023-05-10T02:45:38;2.42;;;1.95;;
31336;SDS011;22846;42.654;23.314;2023-05-10T02:48:05;1.98;;;1.83;;
31336;SDS011;22846;42.654;23.314;2023-05-10T02:50:32;2.00;;;1.90;;
31336;SDS011;22846;42.654;23.314;2023-05-10T02:53:03;1.70;;;1.60;;
31336;SDS011;22846;42.654;23.314;2023-05-10T02:55:36;1.75;;;1.65;;
31336;SDS011;22846;42.654;23.314;2023-05-10T02:58:05;2.17;;;1.92;;
31336;SDS011;22846;42.654;23.314;2023-05-10T03:00:31;1.70;;;1.60;;
31336;SDS011;22846;42.654;23.314;2023-05-10T03:02:58;1.77;;;1.67;;
31336;SDS011;22846;42.654;23.314;2023-05-10T03:05:24;2.00;;;1.90;;
31336;SDS011;22846;42.654;23.314;2023-05-10T03:07:51;3.53;;;2.10;;
31336;SDS011;22846;42.654;23.314;2023-05-10T03:10:18;2.08;;;1.90;;
31336;SDS011;22846;42.654;23.314;2023-05-10T03:15:54;1.77;;;1.67;;
31336;SDS011;22846;42.654;23.314;2023-05-10T03:18:29;2.20;;;1.90;;
31336;SDS011;22846;42.654;23.314;2023-05-10T03:21:03;2.35;;;2.05;;
31336;SDS011;22846;42.654;23.314;2023-05-10T03:23:35;2.38;;;2.17;;
31336;SDS011;22846;42.654;23.314;2023-05-10T03:26:05;1.85;;;1.70;;
31336;SDS011;22846;42.654;23.314;2023-05-10T03:28:33;1.98;;;1.77;;
31336;SDS011;22846;42.654;23.314;2023-05-10T03:31:00;2.80;;;2.13;;
31336;SDS011;22846;42.654;23.314;2023-05-10T03:33:27;2.20;;;2.00;;
31336;SDS011;22846;42.654;23.314;2023-05-10T03:35:53;2.00;;;1.80;;
31336;SDS011;22846;42.654;23.314;2023-05-10T03:38:18;2.08;;;1.88;;
31336;SDS011;22846;42.654;23.314;2023-05-10T03:40:43;2.10;;;1.90;;
31336;SDS011;22846;42.654;23.314;2023-05-10T03:43:11;2.10;;;1.90;;
31336;SDS011;22846;42.654;23.314;2023-05-10T03:45:36;1.98;;;1.85;;
31336;SDS011;22846;42.654;23.314;2023-05-10T03:48:01;1.98;;;1.88;;
31336;SDS011;22846;42.654;23.314;2023-05-10T03:50:27;2.42;;;2.22;;
31336;SDS011;22846;42.654;23.314;2023-05-10T03:52:52;2.17;;;1.98;;
31336;SDS011;22846;42.654;23.314;2023-05-10T03:55:18;3.63;;;2.20;;
31336;SDS011;22846;42.654;23.314;2023-05-10T03:57:43;2.55;;;2.30;;
31336;SDS011;22846;42.654;23.314;2023-05-10T04:00:09;2.20;;;2.00;;
31336;SDS011;22846;42.654;23.314;2023-05-10T04:02:35;8.65;;;2.15;;
31336;SDS011;22846;42.654;23.314;2023-05-10T04:05:01;2.90;;;2.42;;
31336;SDS011;22846;42.654;23.314;2023-05-10T04:07:26;1.90;;;1.70;;
31336;SDS011;22846;42.654;23.314;2023-05-10T04:09:52;4.57;;;2.55;;
31336;SDS011;22846;42.654;23.314;2023-05-10T04:12:17;7.70;;;2.85;;
31336;SDS011;22846;42.654;23.314;2023-05-10T04:14:43;8.88;;;2.90;;
31336;SDS011;22846;42.654;23.314;2023-05-10T04:17:08;4.95;;;2.28;;
31336;SDS011;22846;42.654;23.314;2023-05-10T04:19:33;12.68;;;7.10;;
31336;SDS011;22846;42.654;23.314;2023-05-10T04:21:59;10.35;;;5.75;;
31336;SDS011;22846;42.654;23.314;2023-05-10T04:24:24;12.88;;;6.05;;
31336;SDS011;22846;42.654;23.314;2023-05-10T04:26:50;18.13;;;8.48;;
31336;SDS011;22846;42.654;23.314;2023-05-10T04:29:15;13.13;;;6.38;;
31336;SDS011;22846;42.654;23.314;2023-05-10T04:31:41;12.65;;;6.63;;
31336;SDS011;22846;42.654;23.314;2023-05-10T04:34:07;13.75;;;6.35;;
31336;SDS011;22846;42.654;23.314;2023-05-10T04:36:32;11.93;;;5.35;;
31336;SDS011;22846;42.654;23.314;2023-05-10T04:39:00;16.23;;;5.25;;
31336;SDS011;22846;42.654;23.314;2023-05-10T04:41:25;94.10;;;9.88;;
31336;SDS011;22846;42.654;23.314;2023-05-10T04:43:51;44.35;;;7.43;;
31336;SDS011;22846;42.654;23.314;2023-05-10T04:46:16;35.83;;;6.03;;
31336;SDS011;22846;42.654;23.314;2023-05-10T04:48:42;15.07;;;5.60;;
31336;SDS011;22846;42.654;23.314;2023-05-10T04:51:07;16.70;;;5.00;;
31336;SDS011;22846;42.654;23.314;2023-05-10T04:53:32;17.20;;;5.57;;
31336;SDS011;22846;42.654;23.314;2023-05-10T04:55:58;18.40;;;4.65;;
31336;SDS011;22846;42.654;23.314;2023-05-10T04:58:24;13.70;;;4.80;;
31336;SDS011;22846;42.654;23.314;2023-05-10T05:00:50;11.40;;;4.65;;
31336;SDS011;22846;42.654;23.314;2023-05-10T05:03:15;10.68;;;4.30;;
31336;SDS011;22846;42.654;23.314;2023-05-10T05:05:40;22.10;;;4.90;;
31336;SDS011;22846;42.654;23.314;2023-05-10T05:08:06;12.00;;;5.03;;
31336;SDS011;22846;42.654;23.314;2023-05-10T05:10:31;10.57;;;4.35;;
31336;SDS011;22846;42.654;23.314;2023-05-10T05:12:56;11.15;;;4.85;;
31336;SDS011;22846;42.654;23.314;2023-05-10T05:15:22;10.05;;;4.60;;
31336;SDS011;22846;42.654;23.314;2023-05-10T05:17:47;8.00;;;4.10;;
31336;SDS011;22846;42.654;23.314;2023-05-10T05:20:13;11.15;;;4.50;;
31336;SDS011;22846;42.654;23.314;2023-05-10T05:22:39;11.57;;;4.55;;
31336;SDS011;22846;42.654;23.314;2023-05-10T05:25:04;7.05;;;3.72;;
31336;SDS011;22846;42.654;23.314;2023-05-10T05:27:30;6.90;;;4.05;;
31336;SDS011;22846;42.654;23.314;2023-05-10T05:29:56;10.80;;;4.47;;
31336;SDS011;22846;42.654;23.314;2023-05-10T05:32:22;7.90;;;4.20;;
31336;SDS011;22846;42.654;23.314;2023-05-10T05:34:48;12.73;;;4.32;;
31336;SDS011;22846;42.654;23.314;2023-05-10T05:37:14;9.95;;;4.20;;
31336;SDS011;22846;42.654;23.314;2023-05-10T05:39:41;8.05;;;3.55;;
31336;SDS011;22846;42.654;23.314;2023-05-10T05:42:07;8.35;;;4.07;;
31336;SDS011;22846;42.654;23.314;2023-05-10T05:44:34;6.82;;;4.32;;
31336;SDS011;22846;42.654;23.314;2023-05-10T05:46:59;5.40;;;3.65;;
31336;SDS011;22846;42.654;23.314;2023-05-10T05:49:24;6.60;;;3.85;;
31336;SDS011;22846;42.654;23.314;2023-05-10T05:51:50;8.40;;;4.20;;
31336;SDS011;22846;42.654;23.314;2023-05-10T05:54:15;7.30;;;3.65;;
31336;SDS011;22846;42.654;23.314;2023-05-10T05:56:41;7.88;;;4.00;;
31336;SDS011;22846;42.654;23.314;2023-05-10T05:59:06;7.20;;;3.53;;
31336;SDS011;22846;42.654;23.314;2023-05-10T06:01:32;10.40;;;4.30;;
31336;SDS011;22846;42.654;23.314;2023-05-10T06:03:57;6.53;;;3.80;;
31336;SDS011;22846;42.654;23.314;2023-05-10T06:06:22;6.20;;;3.53;;
31336;SDS011;22846;42.654;23.314;2023-05-10T06:08:48;8.73;;;3.97;;
31336;SDS011;22846;42.654;23.314;2023-05-10T06:11:13;8.77;;;4.05;;
31336;SDS011;22846;42.654;23.314;2023-05-10T06:13:38;6.88;;;3.53;;
31336;SDS011;22846;42.654;23.314;2023-05-10T06:16:04;6.72;;;3.88;;
31336;SDS011;22846;42.654;23.314;2023-05-10T06:18:30;6.15;;;4.00;;
31336;SDS011;22846;42.654;23.314;2023-05-10T06:20:56;5.15;;;4.10;;
31336;SDS011;22846;42.654;23.314;2023-05-10T06:23:22;7.03;;;4.28;;
31336;SDS011;22846;42.654;23.314;2023-05-10T06:25:47;6.20;;;3.83;;
31336;SDS011;22846;42.654;23.314;2023-05-10T06:28:13;7.68;;;4.00;;
31336;SDS011;22846;42.654;23.314;2023-05-10T06:30:38;7.50;;;4.35;;
31336;SDS011;22846;42.654;23.314;2023-05-10T06:33:04;6.30;;;3.95;;
31336;SDS011;22846;42.654;23.314;2023-05-10T06:35:29;7.13;;;3.80;;
31336;SDS011;22846;42.654;23.314;2023-05-10T06:37:56;6.50;;;3.95;;
31336;SDS011;22846;42.654;23.314;2023-05-10T06:40:21;6.63;;;4.03;;
31336;SDS011;22846;42.654;23.314;2023-05-10T06:42:47;6.13;;;3.90;;
31336;SDS011;22846;42.654;23.314;2023-05-10T06:45:13;5.68;;;4.13;;
31336;SDS011;22846;42.654;23.314;2023-05-10T06:47:40;5.15;;;3.85;;
31336;SDS011;22846;42.654;23.314;2023-05-10T06:50:07;7.50;;;4.40;;
31336;SDS011;22846;42.654;23.314;2023-05-10T06:52:33;6.72;;;4.05;;
31336;SDS011;22846;42.654;23.314;2023-05-10T06:54:58;6.43;;;4.15;;
31336;SDS011;22846;42.654;23.314;2023-05-10T06:57:23;5.80;;;4.35;;
31336;SDS011;22846;42.654;23.314;2023-05-10T06:59:49;6.25;;;4.15;;
31336;SDS011;22846;42.654;23.314;2023-05-10T07:02:15;6.68;;;4.00;;
31336;SDS011;22846;42.654;23.314;2023-05-10T07:04:40;7.60;;;4.53;;
31336;SDS011;22846;42.654;23.314;2023-05-10T07:07:06;5.35;;;3.95;;
31336;SDS011;22846;42.654;23.314;2023-05-10T07:09:31;6.68;;;4.07;;
31336;SDS011;22846;42.654;23.314;2023-05-10T07:11:57;6.25;;;4.38;;
31336;SDS011;22846;42.654;23.314;2023-05-10T07:14:22;5.80;;;4.13;;
31336;SDS011;22846;42.654;23.314;2023-05-10T07:16:48;5.07;;;3.90;;
31336;SDS011;22846;42.654;23.314;2023-05-10T07:19:13;5.18;;;3.80;;
31336;SDS011;22846;42.654;23.314;2023-05-10T07:21:39;6.28;;;4.03;;
31336;SDS011;22846;42.654;23.314;2023-05-10T07:24:07;5.72;;;4.20;;
31336;SDS011;22846;42.654;23.314;2023-05-10T07:26:33;6.72;;;4.10;;
31336;SDS011;22846;42.654;23.314;2023-05-10T07:28:58;9.23;;;4.57;;
31336;SDS011;22846;42.654;23.314;2023-05-10T07:31:23;5.97;;;3.92;;
31336;SDS011;22846;42.654;23.314;2023-05-10T07:33:49;5.93;;;4.40;;
31336;SDS011;22846;42.654;23.314;2023-05-10T07:36:14;6.60;;;4.78;;
31336;SDS011;22846;42.654;23.314;2023-05-10T07:38:40;6.70;;;4.22;;
31336;SDS011;22846;42.654;23.314;2023-05-10T07:41:05;5.75;;;4.20;;
31336;SDS011;22846;42.654;23.314;2023-05-10T07:43:31;6.00;;;4.20;;
31336;SDS011;22846;42.654;23.314;2023-05-10T07:45:56;5.88;;;4.07;;
31336;SDS011;22846;42.654;23.314;2023-05-10T07:48:22;5.57;;;4.20;;
31336;SDS011;22846;42.654;23.314;2023-05-10T07:50:48;9.60;;;4.75;;
31336;SDS011;22846;42.654;23.314;2023-05-10T07:53:13;8.23;;;4.68;;
31336;SDS011;22846;42.654;23.314;2023-05-10T07:55:39;6.70;;;4.80;;
31336;SDS011;22846;42.654;23.314;2023-05-10T07:58:04;5.97;;;4.30;;
31336;SDS011;22846;42.654;23.314;2023-05-10T08:00:30;5.97;;;4.38;;
31336;SDS011;22846;42.654;23.314;2023-05-10T08:02:55;7.25;;;4.28;;
31336;SDS011;22846;42.654;23.314;2023-05-10T08:05:20;5.40;;;4.20;;
31336;SDS011;22846;42.654;23.314;2023-05-10T08:07:46;6.32;;;4.28;;
31336;SDS011;22846;42.654;23.314;2023-05-10T08:10:11;5.82;;;4.45;;
31336;SDS011;22846;42.654;23.314;2023-05-10T08:12:37;6.35;;;4.68;;
31336;SDS011;22846;42.654;23.314;2023-05-10T08:15:03;8.30;;;4.80;;
31336;SDS011;22846;42.654;23.314;2023-05-10T08:17:29;6.90;;;4.38;;
31336;SDS011;22846;42.654;23.314;2023-05-10T08:19:54;7.30;;;4.63;;
31336;SDS011;22846;42.654;23.314;2023-05-10T08:22:20;5.60;;;4.28;;
31336;SDS011;22846;42.654;23.314;2023-05-10T08:24:45;6.68;;;4.85;;
31336;SDS011;22846;42.654;23.314;2023-05-10T08:27:10;7.80;;;4.60;;
31336;SDS011;22846;42.654;23.314;2023-05-10T08:29:36;6.00;;;4.80;;
31336;SDS011;22846;42.654;23.314;2023-05-10T08:32:02;5.88;;;4.75;;
31336;SDS011;22846;42.654;23.314;2023-05-10T08:34:28;5.53;;;4.72;;
31336;SDS011;22846;42.654;23.314;2023-05-10T08:36:53;7.47;;;4.63;;
31336;SDS011;22846;42.654;23.314;2023-05-10T08:39:19;5.30;;;4.80;;
31336;SDS011;22846;42.654;23.314;2023-05-10T08:41:44;6.85;;;4.65;;
31336;SDS011;22846;42.654;23.314;2023-05-10T08:44:12;6.75;;;4.90;;
31336;SDS011;22846;42.654;23.314;2023-05-10T08:46:39;6.13;;;4.90;;
31336;SDS011;22846;42.654;23.314;2023-05-10T08:49:09;6.82;;;5.05;;
31336;SDS011;22846;42.654;23.314;2023-05-10T08:51:39;6.05;;;4.78;;
31336;SDS011;22846;42.654;23.314;2023-05-10T08:54:08;8.82;;;4.78;;
31336;SDS011;22846;42.654;23.314;2023-05-10T08:56:34;5.05;;;4.18;;
31336;SDS011;22846;42.654;23.314;2023-05-10T08:58:59;6.07;;;4.95;;
31336;SDS011;22846;42.654;23.314;2023-05-10T09:01:25;7.95;;;4.78;;
31336;SDS011;22846;42.654;23.314;2023-05-10T09:03:52;5.75;;;4.20;;
31336;SDS011;22846;42.654;23.314;2023-05-10T09:06:17;6.53;;;4.85;;
31336;SDS011;22846;42.654;23.314;2023-05-10T09:08:43;7.07;;;4.60;;
31336;SDS011;22846;42.654;23.314;2023-05-10T09:11:11;6.30;;;4.80;;
31336;SDS011;22846;42.654;23.314;2023-05-10T09:13:37;5.40;;;4.30;;
31336;SDS011;22846;42.654;23.314;2023-05-10T09:16:03;6.30;;;4.47;;
31336;SDS011;22846;42.654;23.314;2023-05-10T09:18:29;6.45;;;4.90;;
31336;SDS011;22846;42.654;23.314;2023-05-10T09:20:55;5.45;;;4.40;;
31336;SDS011;22846;42.654;23.314;2023-05-10T09:23:20;6.25;;;4.28;;
31336;SDS011;22846;42.654;23.314;2023-05-10T09:25:46;4.88;;;4.43;;
31336;SDS011;22846;42.654;23.314;2023-05-10T09:28:11;4.63;;;4.03;;
31336;SDS011;22846;42.654;23.314;2023-05-10T09:30:37;5.43;;;4.60;;
31336;SDS011;22846;42.654;23.314;2023-05-10T09:33:03;5.72;;;4.90;;
31336;SDS011;22846;42.654;23.314;2023-05-10T09:35:32;5.57;;;4.80;;
31336;SDS011;22846;42.654;23.314;2023-05-10T09:38:04;5.97;;;4.70;;
31336;SDS011;22846;42.654;23.314;2023-05-10T09:40:30;6.63;;;4.75;;
31336;SDS011;22846;42.654;23.314;2023-05-10T09:42:57;5.60;;;4.80;;
31336;SDS011;22846;42.654;23.314;2023-05-10T09:45:23;5.18;;;4.32;;
31336;SDS011;22846;42.654;23.314;2023-05-10T09:47:50;5.45;;;4.68;;
31336;SDS011;22846;42.654;23.314;2023-05-10T09:50:16;5.97;;;4.85;;
31336;SDS011;22846;42.654;23.314;2023-05-10T09:53:00;5.90;;;4.57;;
31336;SDS011;22846;42.654;23.314;2023-05-10T09:58:05;5.68;;;5.10;;
31336;SDS011;22846;42.654;23.314;2023-05-10T10:00:39;5.80;;;4.70;;
31336;SDS011;22846;42.654;23.314;2023-05-10T10:03:05;6.05;;;4.78;;
31336;SDS011;22846;42.654;23.314;2023-05-10T10:05:36;6.20;;;4.78;;
31336;SDS011;22846;42.654;23.314;2023-05-10T10:08:05;5.07;;;4.53;;
31336;SDS011;22846;42.654;23.314;2023-05-10T10:10:31;7.18;;;4.78;;
31336;SDS011;22846;42.654;23.314;2023-05-10T10:12:57;5.68;;;4.40;;
31336;SDS011;22846;42.654;23.314;2023-05-10T10:15:24;4.95;;;4.32;;
31336;SDS011;22846;42.654;23.314;2023-05-10T10:17:50;6.32;;;4.90;;
31336;SDS011;22846;42.654;23.314;2023-05-10T10:20:17;6.18;;;5.30;;
31336;SDS011;22846;42.654;23.314;2023-05-10T10:22:43;5.57;;;4.65;;
31336;SDS011;22846;42.654;23.314;2023-05-10T10:25:10;5.18;;;4.30;;
31336;SDS011;22846;42.654;23.314;2023-05-10T10:35:58;6.47;;;4.68;;
31336;SDS011;22846;42.654;23.314;2023-05-10T10:38:25;5.35;;;4.82;;
31336;SDS011;22846;42.654;23.314;2023-05-10T10:41:03;6.30;;;4.55;;
31336;SDS011;22846;42.654;23.314;2023-05-10T10:43:35;6.10;;;5.00;;
31336;SDS011;22846;42.654;23.314;2023-05-10T10:48:40;5.78;;;4.30;;
31336;SDS011;22846;42.654;23.314;2023-05-10T10:51:06;5.85;;;4.35;;
31336;SDS011;22846;42.654;23.314;2023-05-10T10:53:32;5.57;;;4.78;;
31336;SDS011;22846;42.654;23.314;2023-05-10T10:56:07;5.18;;;4.60;;
31336;SDS011;22846;42.654;23.314;2023-05-10T10:58:40;4.95;;;4.18;;
31336;SDS011;22846;42.654;23.314;2023-05-10T11:01:16;5.40;;;4.45;;
31336;SDS011;22846;42.654;23.314;2023-05-10T11:06:40;5.07;;;4.40;;
31336;SDS011;22846;42.654;23.314;2023-05-10T11:09:08;6.28;;;4.05;;
31336;SDS011;22846;42.654;23.314;2023-05-10T11:11:35;4.55;;;4.05;;
31336;SDS011;22846;42.654;23.314;2023-05-10T11:14:04;5.07;;;4.20;;
31336;SDS011;22846;42.654;23.314;2023-05-10T11:16:41;5.10;;;4.32;;
31336;SDS011;22846;42.654;23.314;2023-05-10T11:19:08;5.05;;;4.53;;
31336;SDS011;22846;42.654;23.314;2023-05-10T11:21:44;5.03;;;4.32;;
31336;SDS011;22846;42.654;23.314;2023-05-10T11:24:15;4.30;;;3.90;;
31336;SDS011;22846;42.654;23.314;2023-05-10T11:26:42;8.02;;;5.03;;
31336;SDS011;22846;42.654;23.314;2023-05-10T11:29:09;6.35;;;4.30;;
31336;SDS011;22846;42.654;23.314;2023-05-10T11:31:34;6.50;;;4.53;;
31336;SDS011;22846;42.654;23.314;2023-05-10T11:34:00;5.00;;;4.50;;
31336;SDS011;22846;42.654;23.314;2023-05-10T11:36:27;5.75;;;4.47;;
31336;SDS011;22846;42.654;23.314;2023-05-10T11:38:54;7.60;;;4.35;;
31336;SDS011;22846;42.654;23.314;2023-05-10T11:41:21;5.68;;;4.60;;
31336;SDS011;22846;42.654;23.314;2023-05-10T11:43:52;5.18;;;4.03;;
31336;SDS011;22846;42.654;23.314;2023-05-10T11:46:19;8.30;;;4.22;;
31336;SDS011;22846;42.654;23.314;2023-05-10T11:48:46;5.82;;;4.47;;
31336;SDS011;22846;42.654;23.314;2023-05-10T11:51:14;5.65;;;4.30;;
31336;SDS011;22846;42.654;23.314;2023-05-10T11:53:40;5.10;;;4.60;;
31336;SDS011;22846;42.654;23.314;2023-05-10T11:56:06;5.82;;;4.00;;
31336;SDS011;22846;42.654;23.314;2023-05-10T11:58:35;5.25;;;4.55;;
31336;SDS011;22846;42.654;23.314;2023-05-10T12:01:02;4.68;;;4.18;;
31336;SDS011;22846;42.654;23.314;2023-05-10T12:03:29;4.88;;;4.22;;
31336;SDS011;22846;42.654;23.314;2023-05-10T12:05:56;6.63;;;4.55;;
31336;SDS011;22846;42.654;23.314;2023-05-10T12:08:23;6.63;;;4.28;;
31336;SDS011;22846;42.654;23.314;2023-05-10T12:10:49;5.40;;;4.43;;
31336;SDS011;22846;42.654;23.314;2023-05-10T12:13:15;4.80;;;4.30;;
31336;SDS011;22846;42.654;23.314;2023-05-10T12:15:41;4.55;;;3.95;;
31336;SDS011;22846;42.654;23.314;2023-05-10T12:18:14;4.65;;;4.25;;
31336;SDS011;22846;42.654;23.314;2023-05-10T12:20:39;6.60;;;4.55;;
31336;SDS011;22846;42.654;23.314;2023-05-10T12:23:07;4.70;;;4.20;;
31336;SDS011;22846;42.654;23.314;2023-05-10T12:25:35;4.13;;;3.72;;
31336;SDS011;22846;42.654;23.314;2023-05-10T12:28:06;5.45;;;4.13;;
31336;SDS011;22846;42.654;23.314;2023-05-10T12:30:33;4.43;;;4.00;;
31336;SDS011;22846;42.654;23.314;2023-05-10T12:33:10;4.47;;;4.00;;
31336;SDS011;22846;42.654;23.314;2023-05-10T12:35:49;4.47;;;3.78;;
31336;SDS011;22846;42.654;23.314;2023-05-10T12:40:51;4.10;;;3.70;;
31336;SDS011;22846;42.654;23.314;2023-05-10T12:43:17;5.55;;;4.00;;
31336;SDS011;22846;42.654;23.314;2023-05-10T12:45:42;6.75;;;4.18;;
31336;SDS011;22846;42.654;23.314;2023-05-10T12:48:12;4.25;;;3.85;;
31336;SDS011;22846;42.654;23.314;2023-05-10T12:50:38;4.72;;;4.18;;
31336;SDS011;22846;42.654;23.314;2023-05-10T12:53:03;4.72;;;3.85;;
31336;SDS011;22846;42.654;23.314;2023-05-10T12:55:29;4.20;;;3.85;;
31336;SDS011;22846;42.654;23.314;2023-05-10T12:57:54;4.60;;;4.15;;
31336;SDS011;22846;42.654;23.314;2023-05-10T13:00:19;4.60;;;4.10;;
31336;SDS011;22846;42.654;23.314;2023-05-10T13:02:45;4.18;;;3.78;;
31336;SDS011;22846;42.654;23.314;2023-05-10T13:05:10;4.63;;;4.22;;
31336;SDS011;22846;42.654;23.314;2023-05-10T13:07:38;4.60;;;4.10;;
31336;SDS011;22846;42.654;23.314;2023-05-10T13:10:03;4.38;;;3.97;;
31336;SDS011;22846;42.654;23.314;2023-05-10T13:12:30;6.40;;;4.28;;
31336;SDS011;22846;42.654;23.314;2023-05-10T13:14:55;5.00;;;4.15;;
31336;SDS011;22846;42.654;23.314;2023-05-10T13:17:21;3.67;;;3.38;;
31336;SDS011;22846;42.654;23.314;2023-05-10T13:19:46;4.57;;;3.75;;
31336;SDS011;22846;42.654;23.314;2023-05-10T13:22:11;3.83;;;3.45;;
31336;SDS011;22846;42.654;23.314;2023-05-10T13:24:37;4.25;;;3.63;;
31336;SDS011;22846;42.654;23.314;2023-05-10T13:27:02;5.32;;;3.75;;
31336;SDS011;22846;42.654;23.314;2023-05-10T13:29:28;3.80;;;3.50;;
31336;SDS011;22846;42.654;23.314;2023-05-10T13:31:53;3.95;;;3.55;;
31336;SDS011;22846;42.654;23.314;2023-05-10T13:34:19;5.05;;;4.28;;
31336;SDS011;22846;42.654;23.314;2023-05-10T13:36:45;6.70;;;3.83;;
31336;SDS011;22846;42.654;23.314;2023-05-10T13:39:11;4.70;;;4.20;;
31336;SDS011;22846;42.654;23.314;2023-05-10T13:41:37;4.28;;;3.70;;
31336;SDS011;22846;42.654;23.314;2023-05-10T13:44:02;3.60;;;3.30;;
31336;SDS011;22846;42.654;23.314;2023-05-10T13:46:29;3.70;;;3.40;;
31336;SDS011;22846;42.654;23.314;2023-05-10T13:48:55;4.53;;;3.80;;
31336;SDS011;22846;42.654;23.314;2023-05-10T13:51:21;4.97;;;4.15;;
31336;SDS011;22846;42.654;23.314;2023-05-10T13:53:47;4.05;;;3.65;;
31336;SDS011;22846;42.654;23.314;2023-05-10T13:59:03;4.65;;;4.22;;
31336;SDS011;22846;42.654;23.314;2023-05-10T14:01:28;4.38;;;3.97;;
31336;SDS011;22846;42.654;23.314;2023-05-10T14:03:53;5.68;;;4.00;;
31336;SDS011;22846;42.654;23.314;2023-05-10T14:06:19;6.68;;;3.70;;
31336;SDS011;22846;42.654;23.314;2023-05-10T14:08:44;5.25;;;4.30;;
31336;SDS011;22846;42.654;23.314;2023-05-10T14:11:10;4.45;;;4.05;;
31336;SDS011;22846;42.654;23.314;2023-05-10T14:13:36;4.18;;;3.70;;
31336;SDS011;22846;42.654;23.314;2023-05-10T14:16:02;4.35;;;3.90;;
31336;SDS011;22846;42.654;23.314;2023-05-10T14:18:27;4.30;;;3.90;;
31336;SDS011;22846;42.654;23.314;2023-05-10T14:20:53;4.15;;;3.75;;
31336;SDS011;22846;42.654;23.314;2023-05-10T14:23:18;3.90;;;3.60;;
31336;SDS011;22846;42.654;23.314;2023-05-10T14:25:49;3.60;;;3.30;;
31336;SDS011;22846;42.654;23.314;2023-05-10T14:28:15;4.00;;;3.70;;
31336;SDS011;22846;42.654;23.314;2023-05-10T14:30:42;4.88;;;4.10;;
31336;SDS011;22846;42.654;23.314;2023-05-10T14:33:07;3.95;;;3.55;;
31336;SDS011;22846;42.654;23.314;2023-05-10T14:35:32;4.20;;;3.78;;
31336;SDS011;22846;42.654;23.314;2023-05-10T14:37:58;5.30;;;3.70;;
31336;SDS011;22846;42.654;23.314;2023-05-10T14:40:23;3.60;;;3.25;;
31336;SDS011;22846;42.654;23.314;2023-05-10T14:42:49;4.47;;;4.00;;
31336;SDS011;22846;42.654;23.314;2023-05-10T14:45:15;4.43;;;3.85;;
31336;SDS011;22846;42.654;23.314;2023-05-10T14:47:40;4.90;;;3.67;;
31336;SDS011;22846;42.654;23.314;2023-05-10T14:50:06;4.40;;;3.60;;
31336;SDS011;22846;42.654;23.314;2023-05-10T14:55:53;3.90;;;3.50;;
31336;SDS011;22846;42.654;23.314;2023-05-10T14:58:19;4.20;;;3.80;;
31336;SDS011;22846;42.654;23.314;2023-05-10T15:00:44;3.95;;;3.42;;
31336;SDS011;22846;42.654;23.314;2023-05-10T15:03:10;3.83;;;3.40;;
31336;SDS011;22846;42.654;23.314;2023-05-10T15:05:36;4.60;;;4.10;;
31336;SDS011;22846;42.654;23.314;2023-05-10T15:08:02;5.65;;;3.50;;
31336;SDS011;22846;42.654;23.314;2023-05-10T15:10:28;5.07;;;3.55;;
31336;SDS011;22846;42.654;23.314;2023-05-10T15:12:53;3.78;;;3.17;;
31336;SDS011;22846;42.654;23.314;2023-05-10T15:15:19;3.67;;;3.22;;